createdAt,value
2023-09-05T00:02:18.850Z,0.36
2023-09-05T00:07:18.948Z,0.31
2023-09-05T00:12:19.541Z,0.37
2023-09-05T00:17:19.685Z,0.25
2023-09-05T00:22:19.269Z,0.28
2023-09-05T00:27:18.986Z,0.34
2023-09-05T00:32:18.951Z,0.3
2023-09-05T00:37:18.999Z,0.23
2023-09-05T00:42:18.960Z,0.4
2023-09-05T00:47:18.970Z,0.48
2023-09-05T00:52:19.004Z,0.3
2023-09-05T00:57:19.023Z,0.22
2023-09-05T01:02:18.985Z,0.29
2023-09-05T01:07:19.022Z,0.29
2023-09-05T01:12:18.987Z,0.32
2023-09-05T01:17:19.104Z,0.22
2023-09-05T01:22:19.054Z,0.39
2023-09-05T01:27:19.147Z,0.37
2023-09-05T01:32:19.041Z,0.41
2023-09-05T01:37:19.016Z,0.25
2023-09-05T01:42:19.040Z,0.38
2023-09-05T01:47:19.066Z,0.28
2023-09-05T01:52:19.053Z,0.36
2023-09-05T01:57:19.088Z,0.25
2023-09-05T02:02:19.088Z,0.3
2023-09-05T02:07:19.092Z,0.27
2023-09-05T02:12:19.036Z,0.24
2023-09-05T02:17:19.025Z,0.28
2023-09-05T02:22:19.100Z,0.22
2023-09-05T02:27:19.114Z,0.32
2023-09-05T02:32:19.075Z,0.24
2023-09-05T02:37:19.096Z,0.28
2023-09-05T02:42:19.160Z,0.26
2023-09-05T02:47:19.096Z,0.39
2023-09-05T02:52:19.137Z,0.28
2023-09-05T02:57:19.082Z,0.32
2023-09-05T03:02:19.130Z,0.44
2023-09-05T03:07:19.096Z,0.28
2023-09-05T03:12:19.126Z,0.28
2023-09-05T03:17:19.150Z,0.42
2023-09-05T03:22:19.159Z,0.24
2023-09-05T03:27:19.239Z,0.28
2023-09-05T03:32:19.163Z,0.28
2023-09-05T03:37:19.236Z,2.17
2023-09-05T03:42:19.367Z,0.57
2023-09-05T03:47:19.257Z,0.39
2023-09-05T03:52:19.276Z,0.26
2023-09-05T03:57:19.290Z,0.35
2023-09-05T04:02:19.299Z,0.3
2023-09-05T04:07:19.294Z,0.77
2023-09-05T04:12:19.351Z,0.24
2023-09-05T04:17:19.365Z,0.27
2023-09-05T04:22:19.314Z,0.2
2023-09-05T04:27:19.341Z,0.32
2023-09-05T04:32:19.410Z,0.25
2023-09-05T04:37:19.540Z,0.31
2023-09-05T04:42:19.446Z,0.12
2023-09-05T04:47:19.430Z,0.24
2023-09-05T04:52:19.517Z,0.13
2023-09-05T04:57:19.419Z,0.25
2023-09-05T05:02:19.838Z,0.22
2023-09-05T05:07:19.478Z,0.22
2023-09-05T05:12:19.483Z,0.22
2023-09-05T05:17:19.553Z,0.45
2023-09-05T05:22:19.487Z,0.23
2023-09-05T05:27:19.469Z,0.28
2023-09-05T05:32:20.513Z,0.22
2023-09-05T05:37:19.523Z,0.21
2023-09-05T05:42:19.502Z,0.19
2023-09-05T05:47:19.670Z,0.18
2023-09-05T05:52:19.529Z,0.15
2023-09-05T05:57:19.541Z,0.35
2023-09-05T06:02:19.604Z,0.16
2023-09-05T06:07:24.484Z,0.22
2023-09-05T06:12:19.608Z,0.15
2023-09-05T06:17:19.892Z,0.16
2023-09-05T06:22:19.555Z,0.2
2023-09-05T06:27:21.055Z,0.19
2023-09-05T06:32:19.649Z,0.35
2023-09-05T06:37:19.785Z,0.37
2023-09-05T06:42:20.126Z,0.19
2023-09-05T06:47:19.755Z,0.26
2023-09-05T06:52:19.637Z,0.17
2023-09-05T06:57:19.640Z,0.1
2023-09-05T07:02:19.722Z,0.31
2023-09-05T07:07:19.644Z,0.13
2023-09-05T07:12:24.656Z,0.36
2023-09-05T07:17:19.680Z,0.18
2023-09-05T07:22:19.673Z,0.27
2023-09-05T07:27:19.974Z,0.21
2023-09-05T07:32:19.671Z,0.17
2023-09-05T07:37:29.698Z,0.28
2023-09-05T07:42:20.782Z,0.24
2023-09-05T07:47:19.687Z,0.23
2023-09-05T07:52:19.869Z,0.28
2023-09-05T07:57:19.716Z,0.31
2023-09-05T08:02:19.738Z,0.28
2023-09-05T08:07:24.767Z,0.47
2023-09-05T08:12:19.997Z,0.31
2023-09-05T08:17:19.689Z,0.23
2023-09-05T08:22:19.993Z,0.26
2023-09-05T08:27:19.702Z,0.26
2023-09-05T08:32:25.002Z,0.2
2023-09-05T08:37:19.773Z,0.24
2023-09-05T08:42:19.756Z,0.31
2023-09-05T08:47:19.813Z,0.29
2023-09-05T08:52:22.959Z,0.21
2023-09-05T08:57:19.774Z,0.26
2023-09-05T09:02:19.798Z,0.25
2023-09-05T09:07:21.979Z,0.3
2023-09-05T09:12:19.839Z,0.31
2023-09-05T09:17:20.940Z,0.2
2023-09-05T09:22:19.925Z,0.27
2023-09-05T09:27:19.900Z,0.39
2023-09-05T09:32:19.839Z,0.52
2023-09-05T09:37:19.852Z,0.36
2023-09-05T09:42:19.873Z,0.4
2023-09-05T09:47:19.900Z,0.3
2023-09-05T09:52:19.879Z,0.2
2023-09-05T09:57:20.698Z,0.35
2023-09-05T10:02:24.908Z,0.29
2023-09-05T10:07:19.841Z,0.27
2023-09-05T10:12:20.078Z,0.53
2023-09-05T10:17:20.174Z,0.39
2023-09-05T10:22:20.050Z,0.41
2023-09-05T10:27:19.974Z,0.37
2023-09-05T10:32:19.957Z,0.31
2023-09-05T10:37:19.957Z,0.44
2023-09-05T10:42:24.875Z,0.25
2023-09-05T10:47:19.942Z,0.34
2023-09-05T10:52:20.087Z,0.3
2023-09-05T10:57:19.994Z,0.27
2023-09-05T11:02:19.981Z,0.4
2023-09-05T11:07:20.069Z,0.39
2023-09-05T11:12:20.025Z,0.37
2023-09-05T11:17:20.018Z,0.54
2023-09-05T11:22:20.017Z,0.4
2023-09-05T11:27:20.030Z,0.63
2023-09-05T11:32:20.057Z,0.44
2023-09-05T11:37:20.000Z,0.49
2023-09-05T11:42:20.074Z,0.47
2023-09-05T11:47:21.062Z,0.43
2023-09-05T11:52:20.077Z,0.42
2023-09-05T11:57:20.329Z,0.35
2023-09-05T12:02:20.074Z,0.55
2023-09-05T12:07:20.186Z,0.64
2023-09-05T12:12:20.138Z,0.57
2023-09-05T12:17:20.166Z,0.5
2023-09-05T12:22:20.153Z,0.5
2023-09-05T12:27:20.204Z,0.69
2023-09-05T12:32:20.267Z,0.51
2023-09-05T12:37:20.217Z,0.45
2023-09-05T12:42:25.165Z,0.6
2023-09-05T12:47:20.182Z,0.68
2023-09-05T12:52:20.251Z,0.63
2023-09-05T12:57:20.183Z,0.59
2023-09-05T13:02:20.249Z,0.53
2023-09-05T13:07:20.258Z,0.54
2023-09-05T13:12:20.247Z,0.52
2023-09-05T13:17:20.176Z,0.5
2023-09-05T13:22:20.210Z,0.48
2023-09-05T13:27:20.208Z,0.51
2023-09-05T13:32:20.192Z,0.53
2023-09-05T13:37:20.213Z,0.45
2023-09-05T13:42:20.179Z,0.4
2023-09-05T13:47:20.200Z,0.51
2023-09-05T13:52:20.241Z,0.59
2023-09-05T13:57:20.366Z,0.55
2023-09-05T14:02:20.282Z,0.58
2023-09-05T14:07:20.280Z,0.56
2023-09-05T14:12:20.292Z,0.54
2023-09-05T14:17:20.280Z,0.42
2023-09-05T14:22:20.269Z,0.44
2023-09-05T14:27:20.390Z,0.45
2023-09-05T14:32:20.256Z,0.46
2023-09-05T14:37:20.324Z,0.56
2023-09-05T14:42:20.352Z,0.73
2023-09-05T14:47:20.347Z,0.73
2023-09-05T14:52:20.271Z,0.64
2023-09-05T14:57:20.322Z,0.72
2023-09-05T15:02:20.323Z,0.54
2023-09-05T15:07:20.273Z,0.58
2023-09-05T15:12:20.339Z,1.19
2023-09-05T15:17:20.310Z,0.68
2023-09-05T15:22:20.343Z,0.57
2023-09-05T15:27:20.449Z,0.53
2023-09-05T15:32:20.359Z,0.7
2023-09-05T15:37:20.405Z,0.69
2023-09-05T15:42:20.344Z,0.8
2023-09-05T15:47:20.375Z,0.62
2023-09-05T15:52:20.442Z,0.56
2023-09-05T15:57:20.491Z,0.53
2023-09-05T16:02:20.510Z,0.64
2023-09-05T16:07:20.414Z,0.8
2023-09-05T16:12:20.433Z,1.12
2023-09-05T16:17:20.491Z,0.82
2023-09-05T16:22:20.881Z,0.62
2023-09-05T16:27:20.468Z,0.37
2023-09-05T16:32:20.485Z,0.7
2023-09-05T16:37:20.553Z,0.57
2023-09-05T16:42:22.033Z,0.73
2023-09-05T16:47:21.653Z,0.58
2023-09-05T16:52:20.856Z,0.45
2023-09-05T16:57:20.682Z,0.67
2023-09-05T17:02:20.937Z,0.51
2023-09-05T17:07:21.686Z,0.62
2023-09-05T17:12:21.074Z,0.89
2023-09-05T17:17:20.709Z,0.85
2023-09-05T17:22:20.996Z,0.76
2023-09-05T17:27:21.000Z,0.53
2023-09-05T17:32:21.054Z,0.69
2023-09-05T17:37:20.786Z,0.59
2023-09-05T17:42:21.223Z,0.59
2023-09-05T17:47:20.639Z,0.63
2023-09-05T17:52:21.071Z,0.57
2023-09-05T17:57:22.099Z,0.47
2023-09-05T18:02:20.992Z,0.58
2023-09-05T18:07:20.675Z,0.6
2023-09-05T18:12:20.732Z,0.62
2023-09-05T18:17:20.744Z,0.94
2023-09-05T18:22:20.724Z,0.85
2023-09-05T18:27:20.794Z,0.83
2023-09-05T18:32:21.011Z,0.79
2023-09-05T18:37:20.766Z,0.7
2023-09-05T18:42:20.765Z,0.74
2023-09-05T18:47:20.781Z,0.6
2023-09-05T18:52:20.757Z,0.71
2023-09-05T18:57:20.762Z,0.55
2023-09-05T19:02:20.938Z,0.8
2023-09-05T19:07:20.784Z,0.77
2023-09-05T19:12:20.758Z,0.8
2023-09-05T19:17:20.878Z,0.65
2023-09-05T19:22:20.847Z,0.76
2023-09-05T19:27:20.837Z,0.63
2023-09-05T19:32:20.809Z,0.78
2023-09-05T19:37:20.815Z,0.84
2023-09-05T19:42:20.867Z,0.65
2023-09-05T19:47:20.837Z,0.49
2023-09-05T19:52:20.798Z,0.43
2023-09-05T19:57:20.871Z,0.81
2023-09-05T20:02:20.920Z,0.73
2023-09-05T20:07:20.855Z,0.85
2023-09-05T20:12:20.878Z,0.57
2023-09-05T20:17:21.205Z,0.6
2023-09-05T20:22:20.848Z,0.67
2023-09-05T20:27:20.914Z,0.65
2023-09-05T20:32:20.870Z,0.44
2023-09-05T20:37:20.928Z,0.58
2023-09-05T20:42:20.924Z,0.81
2023-09-05T20:47:20.932Z,0.68
2023-09-05T20:52:20.938Z,0.82
2023-09-05T20:57:20.912Z,0.74
2023-09-05T21:02:20.964Z,0.68
2023-09-05T21:07:20.955Z,0.56
2023-09-05T21:12:21.003Z,0.61
2023-09-05T21:17:21.020Z,0.56
2023-09-05T21:22:20.941Z,0.77
2023-09-05T21:27:20.973Z,0.8
2023-09-05T21:32:20.987Z,0.68
2023-09-05T21:37:20.984Z,0.71
2023-09-05T21:42:20.990Z,0.76
2023-09-05T21:47:21.000Z,0.55
2023-09-05T21:52:21.045Z,0.71
2023-09-05T21:57:21.017Z,0.68
2023-09-05T22:02:21.217Z,0.77
2023-09-05T22:07:21.026Z,0.51
2023-09-05T22:12:21.054Z,0.67
2023-09-05T22:17:21.072Z,0.49
2023-09-05T22:22:21.077Z,0.65
2023-09-05T22:27:21.125Z,0.58
2023-09-05T22:32:21.085Z,0.58
2023-09-05T22:37:21.055Z,0.68
2023-09-05T22:42:21.201Z,0.41
2023-09-05T22:47:21.091Z,0.53
2023-09-05T22:52:21.031Z,0.59
2023-09-05T22:57:21.143Z,0.66
2023-09-05T23:02:21.123Z,0.56
2023-09-05T23:07:21.097Z,0.46
2023-09-05T23:12:21.126Z,0.77
2023-09-05T23:17:21.204Z,0.57
2023-09-05T23:22:21.109Z,0.63
2023-09-05T23:27:21.165Z,0.53
2023-09-05T23:32:21.156Z,0.6
2023-09-05T23:37:21.138Z,0.65
2023-09-05T23:42:21.189Z,0.45
2023-09-05T23:47:21.199Z,0.6
2023-09-05T23:52:21.192Z,0.49
2023-09-05T23:57:21.255Z,0.71
